createdAt,value
2019-02-20T00:00:35.213Z,5.13
2019-02-20T00:03:11.662Z,6.27
2019-02-20T00:05:47.646Z,5.63
2019-02-20T00:08:22.424Z,7.50
2019-02-20T00:10:57.302Z,6.10
2019-02-20T00:13:31.827Z,5.43
2019-02-20T00:16:06.922Z,6.20
2019-02-20T00:18:42.964Z,5.67
2019-02-20T00:21:17.706Z,5.23
2019-02-20T00:23:52.477Z,5.77
2019-02-20T00:26:26.992Z,5.77
2019-02-20T00:29:02.170Z,6.03
2019-02-20T00:31:39.532Z,5.80
2019-02-20T00:34:14.261Z,5.87
2019-02-20T00:36:48.773Z,5.67
2019-02-20T00:39:23.294Z,4.60
2019-02-20T00:41:57.791Z,6.93
2019-02-20T00:44:35.115Z,5.47
2019-02-20T00:47:27.757Z,5.67
2019-02-20T00:50:02.381Z,6.03
2019-02-20T00:52:49.847Z,5.27
2019-02-20T00:55:22.341Z,5.37
2019-02-20T00:57:57.252Z,6.57
2019-02-20T01:00:31.945Z,5.50
2019-02-20T01:03:06.470Z,5.80
2019-02-20T01:05:41.292Z,6.30
2019-02-20T01:08:15.994Z,5.10
2019-02-20T01:10:51.052Z,5.83
2019-02-20T01:13:25.908Z,6.07
2019-02-20T01:16:00.969Z,6.67
2019-02-20T01:18:35.545Z,7.33
2019-02-20T01:21:10.108Z,5.43
2019-02-20T01:23:44.643Z,5.93
2019-02-20T01:26:19.150Z,6.03
2019-02-20T01:28:54.042Z,5.93
2019-02-20T01:31:29.537Z,5.70
2019-02-20T01:34:04.385Z,5.97
2019-02-20T01:36:39.425Z,5.00
2019-02-20T01:39:15.285Z,5.50
2019-02-20T01:41:50.066Z,5.90
2019-02-20T01:44:24.929Z,5.40
2019-02-20T01:47:00.591Z,5.27
2019-02-20T01:49:35.464Z,5.40
2019-02-20T01:52:10.291Z,5.73
2019-02-20T01:54:44.818Z,5.53
2019-02-20T01:57:19.315Z,4.77
2019-02-20T01:59:54.559Z,5.70
2019-02-20T02:02:29.579Z,5.50
2019-02-20T02:05:14.849Z,5.13
2019-02-20T02:07:43.956Z,4.83
2019-02-20T02:10:19.226Z,5.00
2019-02-20T02:12:54.753Z,5.13
2019-02-20T02:15:29.808Z,4.77
2019-02-20T02:18:04.842Z,6.47
2019-02-20T02:20:40.278Z,5.27
2019-02-20T02:23:19.888Z,6.20
2019-02-20T02:25:53.481Z,5.37
2019-02-20T02:28:29.160Z,5.17
2019-02-20T02:31:03.656Z,4.83
2019-02-20T02:33:38.524Z,4.27
2019-02-20T02:36:13.115Z,3.63
2019-02-20T02:38:47.993Z,5.03
2019-02-20T02:41:22.525Z,3.77
2019-02-20T02:43:57.366Z,5.20
2019-02-20T02:46:32.238Z,3.77
2019-02-20T02:49:07.336Z,4.13
2019-02-20T02:51:42.641Z,4.17
2019-02-20T02:54:18.196Z,4.37
2019-02-20T02:56:53.229Z,3.60
2019-02-20T02:59:32.559Z,3.00
2019-02-20T03:02:08.133Z,4.50
2019-02-20T03:04:43.454Z,4.57
2019-02-20T03:07:18.589Z,3.10
2019-02-20T03:09:53.705Z,4.33
2019-02-20T03:12:28.739Z,4.97
2019-02-20T03:15:05.042Z,4.47
2019-02-20T03:17:40.478Z,3.97
2019-02-20T03:20:15.505Z,3.67
2019-02-20T03:22:50.622Z,4.00
2019-02-20T03:25:25.658Z,4.67
2019-02-20T03:28:00.839Z,4.20
2019-02-20T03:30:37.075Z,4.57
2019-02-20T03:33:12.142Z,3.77
2019-02-20T03:35:46.754Z,4.07
2019-02-20T03:38:29.934Z,5.00
2019-02-20T03:40:58.097Z,3.60
2019-02-20T03:43:32.594Z,4.40
2019-02-20T03:46:07.444Z,4.53
2019-02-20T03:48:42.837Z,3.90
2019-02-20T03:51:17.962Z,4.10
2019-02-20T03:53:53.057Z,3.67
2019-02-20T03:56:27.771Z,4.47
2019-02-20T03:59:02.567Z,5.17
2019-02-20T04:01:37.735Z,4.23
2019-02-20T04:04:13.602Z,5.63
2019-02-20T04:06:48.452Z,4.37
2019-02-20T04:09:23.557Z,4.93
2019-02-20T04:11:58.570Z,4.87
2019-02-20T04:14:33.582Z,4.03
2019-02-20T04:17:08.719Z,4.30
2019-02-20T04:19:44.718Z,5.07
2019-02-20T04:22:19.833Z,5.17
2019-02-20T04:24:54.914Z,6.30
2019-02-20T04:27:29.734Z,5.53
2019-02-20T04:30:07.212Z,5.00
2019-02-20T04:32:41.936Z,4.90
2019-02-20T04:35:17.736Z,5.60
2019-02-20T04:37:53.115Z,6.53
2019-02-20T04:40:28.982Z,5.97
2019-02-20T04:43:04.394Z,5.57
2019-02-20T04:45:40.679Z,5.77
2019-02-20T04:48:15.370Z,6.17
2019-02-20T04:50:50.547Z,4.60
2019-02-20T04:53:25.553Z,8.80
2019-02-20T04:56:00.281Z,5.60
2019-02-20T04:58:36.316Z,6.77
2019-02-20T05:01:11.367Z,7.23
2019-02-20T05:03:46.645Z,5.90
2019-02-20T05:06:22.505Z,6.20
2019-02-20T05:08:58.092Z,6.30
2019-02-20T05:11:33.213Z,6.53
2019-02-20T05:14:08.321Z,7.13
2019-02-20T05:16:43.662Z,7.57
2019-02-20T05:19:19.098Z,5.73
2019-02-20T05:21:54.139Z,7.03
2019-02-20T05:24:29.261Z,6.77
2019-02-20T05:27:06.493Z,7.00
2019-02-20T05:29:41.516Z,6.53
2019-02-20T05:32:16.772Z,6.07
2019-02-20T05:34:52.781Z,7.10
2019-02-20T05:37:28.195Z,6.87
2019-02-20T05:40:05.678Z,6.97
2019-02-20T05:42:40.711Z,7.27
2019-02-20T05:45:15.842Z,7.30
2019-02-20T05:47:50.951Z,6.93
2019-02-20T05:50:26.043Z,7.17
2019-02-20T05:53:02.168Z,6.57
2019-02-20T05:55:37.017Z,8.07
2019-02-20T05:58:12.132Z,7.37
2019-02-20T06:00:47.371Z,6.53
2019-02-20T06:03:22.390Z,6.73
2019-02-20T06:05:57.705Z,7.13
2019-02-20T06:08:33.066Z,7.20
2019-02-20T06:11:14.703Z,8.50
2019-02-20T06:13:45.229Z,8.90
2019-02-20T06:16:21.016Z,7.80
2019-02-20T06:18:56.728Z,6.90
2019-02-20T06:21:31.810Z,7.83
2019-02-20T06:24:06.842Z,9.00
2019-02-20T06:26:41.886Z,6.10
2019-02-20T06:29:17.352Z,8.03
2019-02-20T06:31:52.491Z,7.40
2019-02-20T06:34:30.042Z,7.17
2019-02-20T06:37:05.097Z,7.70
2019-02-20T06:39:40.573Z,8.83
2019-02-20T06:42:15.607Z,6.93
2019-02-20T06:44:53.840Z,6.67
2019-02-20T06:47:28.903Z,6.10
2019-02-20T06:50:05.796Z,7.13
2019-02-20T06:52:40.933Z,6.00
2019-02-20T06:55:16.245Z,6.47
2019-02-20T06:57:51.313Z,7.50
2019-02-20T07:00:26.702Z,6.40
2019-02-20T07:03:02.006Z,5.13
2019-02-20T07:05:38.713Z,6.10
2019-02-20T07:08:17.795Z,7.60
2019-02-20T07:11:11.522Z,7.53
2019-02-20T07:14:08.853Z,7.07
2019-02-20T07:17:05.809Z,5.80
2019-02-20T07:19:51.290Z,6.07
2019-02-20T07:22:48.991Z,6.77
2019-02-20T07:25:33.082Z,7.53
2019-02-20T07:28:18.925Z,6.60
2019-02-20T07:30:54.929Z,6.97
2019-02-20T07:33:30.282Z,7.10
2019-02-20T07:36:05.394Z,6.07
2019-02-20T07:38:40.422Z,5.57
2019-02-20T07:41:15.446Z,5.37
2019-02-20T07:43:50.845Z,4.80
2019-02-20T07:46:25.865Z,6.30
2019-02-20T07:49:00.948Z,6.63
2019-02-20T07:51:36.041Z,5.40
2019-02-20T07:54:11.493Z,6.63
2019-02-20T07:56:46.838Z,5.93
2019-02-20T07:59:21.978Z,5.23
2019-02-20T08:01:58.654Z,6.70
2019-02-20T08:04:33.759Z,5.93
2019-02-20T08:07:08.803Z,6.00
2019-02-20T08:09:43.850Z,5.27
2019-02-20T08:12:20.311Z,4.83
2019-02-20T08:14:55.323Z,5.10
2019-02-20T08:17:30.710Z,5.90
2019-02-20T08:20:08.182Z,5.67
2019-02-20T08:22:43.665Z,6.17
2019-02-20T08:25:22.785Z,5.87
2019-02-20T08:27:55.981Z,5.73
2019-02-20T08:30:31.011Z,6.00
2019-02-20T08:33:06.080Z,6.73
2019-02-20T08:35:41.483Z,5.70
2019-02-20T08:38:16.541Z,5.40
2019-02-20T08:40:55.080Z,5.33
2019-02-20T08:43:30.207Z,7.70
2019-02-20T08:46:05.314Z,5.57
2019-02-20T08:48:40.426Z,5.73
2019-02-20T08:51:15.480Z,5.87
2019-02-20T08:53:51.478Z,5.63
2019-02-20T08:56:26.507Z,6.60
2019-02-20T08:59:01.646Z,6.57
2019-02-20T09:01:37.063Z,6.20
2019-02-20T09:04:12.579Z,6.53
2019-02-20T09:06:48.778Z,6.03
2019-02-20T09:09:23.919Z,5.80
2019-02-20T09:11:58.981Z,6.27
2019-02-20T09:14:34.042Z,4.93
2019-02-20T09:17:09.404Z,8.10
2019-02-20T09:19:44.602Z,6.20
2019-02-20T09:22:19.659Z,6.63
2019-02-20T09:24:55.675Z,5.87
2019-02-20T09:27:30.730Z,7.70
2019-02-20T09:30:11.649Z,6.73
2019-02-20T09:32:46.686Z,6.67
2019-02-20T09:35:22.842Z,6.40
2019-02-20T09:37:57.905Z,7.40
2019-02-20T09:40:32.940Z,5.83
2019-02-20T09:43:08.005Z,7.77
2019-02-20T09:45:44.569Z,6.33
2019-02-20T09:48:25.136Z,5.97
2019-02-20T09:51:00.194Z,6.40
2019-02-20T09:53:36.495Z,5.63
2019-02-20T09:56:11.856Z,6.23
2019-02-20T09:58:47.280Z,6.60
2019-02-20T10:01:22.649Z,6.73
2019-02-20T10:03:59.501Z,6.47
2019-02-20T10:06:34.957Z,6.33
2019-02-20T10:09:09.983Z,6.50
2019-02-20T10:11:45.053Z,6.67
2019-02-20T10:14:20.776Z,6.63
2019-02-20T10:16:56.632Z,6.33
2019-02-20T10:19:32.175Z,6.47
2019-02-20T10:22:07.232Z,5.60
2019-02-20T10:24:42.513Z,6.90
2019-02-20T10:27:17.556Z,6.87
2019-02-20T10:29:52.594Z,5.93
2019-02-20T10:32:29.302Z,8.37
2019-02-20T10:35:06.198Z,6.83
2019-02-20T10:37:41.483Z,7.20
2019-02-20T10:40:18.572Z,6.10
2019-02-20T10:42:53.615Z,6.57
2019-02-20T10:45:28.653Z,6.10
2019-02-20T10:48:03.755Z,7.03
2019-02-20T10:50:38.885Z,6.63
2019-02-20T10:53:14.115Z,7.33
2019-02-20T10:55:49.633Z,6.43
2019-02-20T10:58:24.910Z,6.50
2019-02-20T11:01:04.515Z,7.07
2019-02-20T11:03:39.683Z,7.40
2019-02-20T11:06:14.805Z,6.73
2019-02-20T11:08:51.027Z,6.30
2019-02-20T11:11:26.118Z,6.53
2019-02-20T11:14:01.238Z,7.47
2019-02-20T11:16:36.429Z,7.13
2019-02-20T11:19:13.575Z,6.93
2019-02-20T11:21:48.894Z,6.27
2019-02-20T11:24:23.920Z,7.17
2019-02-20T11:26:59.056Z,6.37
2019-02-20T11:29:34.118Z,6.10
2019-02-20T11:32:09.445Z,6.17
2019-02-20T11:34:44.855Z,6.77
2019-02-20T11:37:19.900Z,6.80
2019-02-20T11:39:54.991Z,6.77
2019-02-20T11:42:30.032Z,6.97
2019-02-20T11:45:08.406Z,7.23
2019-02-20T11:47:43.454Z,6.73
2019-02-20T11:50:18.842Z,7.17
2019-02-20T11:52:53.989Z,6.10
2019-02-20T11:55:29.041Z,7.37
2019-02-20T11:58:04.206Z,5.73
2019-02-20T12:00:40.250Z,6.90
2019-02-20T12:03:16.530Z,7.07
2019-02-20T12:05:52.409Z,6.70
2019-02-20T12:08:29.071Z,6.67
2019-02-20T12:11:05.527Z,6.70
2019-02-20T12:13:40.861Z,6.67
2019-02-20T12:16:16.210Z,8.10
2019-02-20T12:18:51.263Z,7.80
2019-02-20T12:21:26.396Z,7.97
2019-02-20T12:24:02.481Z,7.10
2019-02-20T12:26:39.093Z,8.17
2019-02-20T12:29:14.455Z,7.87
2019-02-20T12:31:52.543Z,7.17
2019-02-20T12:34:26.581Z,7.27
2019-02-20T12:37:01.705Z,7.33
2019-02-20T12:39:37.158Z,8.00
2019-02-20T12:42:13.051Z,7.67
2019-02-20T12:44:48.702Z,7.53
2019-02-20T12:47:23.728Z,8.60
2019-02-20T12:49:59.779Z,7.67
2019-02-20T12:52:35.210Z,7.20
2019-02-20T12:55:11.241Z,7.70
2019-02-20T12:57:46.351Z,8.07
2019-02-20T13:00:23.077Z,9.37
2019-02-20T13:02:58.182Z,8.27
2019-02-20T13:05:34.205Z,7.30
2019-02-20T13:08:09.284Z,7.97
2019-02-20T13:10:45.441Z,7.97
2019-02-20T13:13:20.597Z,7.40
2019-02-20T13:15:55.716Z,8.70
2019-02-20T13:18:30.808Z,8.40
2019-02-20T13:21:05.859Z,8.23
2019-02-20T13:23:41.258Z,7.80
2019-02-20T13:26:16.725Z,6.53
2019-02-20T13:28:52.009Z,7.07
2019-02-20T13:31:27.481Z,7.83
2019-02-20T13:34:02.669Z,7.63
2019-02-20T13:36:38.795Z,7.80
2019-02-20T13:39:13.858Z,8.40
2019-02-20T13:41:48.999Z,6.93
2019-02-20T13:44:25.839Z,7.80
2019-02-20T13:47:05.057Z,8.47
2019-02-20T13:49:40.639Z,8.27
2019-02-20T13:52:15.791Z,9.20
2019-02-20T13:54:51.198Z,8.77
2019-02-20T13:57:26.596Z,8.27
2019-02-20T14:00:02.604Z,7.90
2019-02-20T14:02:39.106Z,8.07
2019-02-20T14:05:14.381Z,9.63
2019-02-20T14:07:49.792Z,9.70
2019-02-20T14:10:24.922Z,9.13
2019-02-20T14:13:00.370Z,7.43
2019-02-20T14:15:35.504Z,9.47
2019-02-20T14:18:11.948Z,7.97
2019-02-20T14:20:47.128Z,8.97
2019-02-20T14:23:22.782Z,8.33
2019-02-20T14:25:57.969Z,8.10
2019-02-20T14:28:33.497Z,8.90
2019-02-20T14:31:10.016Z,7.60
2019-02-20T14:33:48.295Z,9.03
2019-02-20T14:36:26.924Z,10.57
2019-02-20T14:39:05.917Z,8.17
2019-02-20T14:41:42.651Z,10.33
2019-02-20T14:44:17.753Z,8.70
2019-02-20T14:46:53.828Z,8.60
2019-02-20T14:49:28.987Z,7.83
2019-02-20T14:52:04.139Z,7.20
2019-02-20T14:54:39.668Z,7.93
2019-02-20T14:57:19.603Z,8.87
2019-02-20T14:59:52.059Z,8.10
2019-02-20T15:02:27.538Z,8.87
2019-02-20T15:05:02.705Z,8.37
2019-02-20T15:07:38.242Z,8.87
2019-02-20T15:10:14.562Z,9.70
2019-02-20T15:12:50.324Z,7.30
2019-02-20T15:15:25.826Z,8.20
2019-02-20T15:18:02.524Z,7.97
2019-02-20T15:20:37.787Z,9.30
2019-02-20T15:23:13.341Z,9.67
2019-02-20T15:25:48.515Z,8.40
2019-02-20T15:28:25.366Z,7.93
2019-02-20T15:31:02.156Z,8.33
2019-02-20T15:33:38.721Z,6.60
2019-02-20T15:36:13.911Z,6.17
2019-02-20T15:38:49.816Z,7.13
2019-02-20T15:41:26.055Z,7.07
2019-02-20T15:44:01.944Z,5.73
2019-02-20T15:46:38.472Z,7.40
2019-02-20T15:49:14.187Z,6.30
2019-02-20T15:51:49.683Z,6.53
2019-02-20T15:54:27.002Z,7.67
2019-02-20T15:57:02.198Z,6.63
2019-02-20T15:59:39.554Z,7.37
2019-02-20T16:02:20.583Z,8.27
2019-02-20T16:04:55.762Z,6.40
2019-02-20T16:07:30.930Z,6.93
2019-02-20T16:10:08.614Z,6.17
2019-02-20T16:12:44.819Z,9.73
2019-02-20T16:15:20.660Z,6.93
2019-02-20T16:17:55.850Z,6.30
2019-02-20T16:20:33.661Z,6.60
2019-02-20T16:23:09.031Z,6.93
2019-02-20T16:25:47.678Z,7.37
2019-02-20T16:28:27.852Z,7.67
2019-02-20T16:31:00.287Z,8.50
2019-02-20T16:33:36.348Z,8.30
2019-02-20T16:36:11.451Z,10.63
2019-02-20T16:38:48.065Z,9.13
2019-02-20T16:41:25.039Z,13.53
2019-02-20T16:44:02.217Z,9.00
2019-02-20T16:46:37.984Z,8.07
2019-02-20T16:49:13.145Z,8.53
2019-02-20T16:51:49.629Z,8.93
2019-02-20T16:54:25.153Z,8.97
2019-02-20T16:57:00.328Z,10.00
2019-02-20T16:59:36.630Z,11.37
2019-02-20T17:02:12.163Z,10.07
2019-02-20T17:04:47.302Z,9.73
2019-02-20T17:07:23.019Z,11.37
2019-02-20T17:09:58.554Z,9.23
2019-02-20T17:12:33.731Z,11.90
2019-02-20T17:15:14.302Z,9.90
2019-02-20T17:17:49.505Z,9.40
2019-02-20T17:20:26.676Z,11.50
2019-02-20T17:23:05.887Z,9.63
2019-02-20T17:25:39.005Z,8.80
2019-02-20T17:28:18.513Z,12.20
2019-02-20T17:30:55.628Z,8.47
2019-02-20T17:33:31.262Z,10.10
2019-02-20T17:36:06.916Z,26.50
2019-02-20T17:38:42.955Z,9.10
2019-02-20T17:41:19.107Z,10.83
2019-02-20T17:43:55.714Z,10.93
2019-02-20T17:46:30.937Z,9.33
2019-02-20T17:49:09.301Z,8.37
2019-02-20T17:51:44.629Z,8.43
2019-02-20T17:54:23.819Z,8.30
2019-02-20T17:56:59.075Z,8.87
2019-02-20T17:59:35.591Z,8.60
2019-02-20T18:02:11.917Z,9.80
2019-02-20T18:04:49.411Z,9.57
2019-02-20T18:07:24.853Z,10.17
2019-02-20T18:09:59.974Z,9.00
2019-02-20T18:12:35.514Z,8.23
2019-02-20T18:15:12.140Z,13.20
2019-02-20T18:17:47.369Z,12.53
2019-02-20T18:20:23.723Z,10.03
2019-02-20T18:23:00.583Z,8.50
2019-02-20T18:25:35.830Z,9.17
2019-02-20T18:28:11.014Z,8.30
2019-02-20T18:30:46.405Z,8.60
2019-02-20T18:33:22.553Z,8.83
2019-02-20T18:35:58.427Z,9.10
2019-02-20T18:38:33.872Z,8.60
2019-02-20T18:41:09.881Z,12.10
2019-02-20T18:43:45.388Z,11.03
2019-02-20T18:46:20.569Z,8.23
2019-02-20T18:48:55.809Z,9.33
2019-02-20T18:51:31.041Z,7.40
2019-02-20T18:54:07.378Z,9.30
2019-02-20T18:56:42.342Z,8.97
2019-02-20T18:59:17.414Z,9.20
2019-02-20T19:01:52.861Z,9.23
2019-02-20T19:04:28.029Z,9.83
2019-02-20T19:07:11.395Z,10.17
2019-02-20T19:09:47.143Z,9.07
2019-02-20T19:12:33.402Z,23.27
2019-02-20T19:15:21.770Z,13.30
2019-02-20T19:18:05.999Z,8.90
2019-02-20T19:21:07.983Z,8.63
2019-02-20T19:23:56.360Z,10.03
2019-02-20T19:26:34.656Z,9.40
2019-02-20T19:29:26.739Z,9.27
2019-02-20T19:32:14.589Z,8.23
2019-02-20T19:35:12.742Z,9.10
2019-02-20T19:38:06.588Z,8.80
2019-02-20T19:40:59.009Z,8.10
2019-02-20T19:43:41.053Z,8.90
2019-02-20T19:46:25.361Z,8.20
2019-02-20T19:49:06.843Z,8.53
2019-02-20T19:52:10.740Z,8.63
2019-02-20T19:55:02.305Z,9.73
2019-02-20T19:58:13.492Z,8.67
2019-02-20T20:01:01.217Z,8.07
2019-02-20T20:03:55.603Z,6.87
2019-02-20T20:06:43.949Z,8.90
2019-02-20T20:09:25.717Z,7.80
2019-02-20T20:12:17.264Z,9.83
2019-02-20T20:15:14.367Z,9.53
2019-02-20T20:17:55.806Z,8.43
2019-02-20T20:20:37.034Z,10.03
2019-02-20T20:23:39.159Z,9.20
2019-02-20T20:26:55.975Z,8.60
2019-02-20T20:29:47.875Z,9.20
2019-02-20T20:32:55.195Z,8.67
2019-02-20T20:35:43.106Z,8.73
2019-02-20T20:38:25.586Z,7.57
2019-02-20T20:41:04.019Z,7.87
2019-02-20T20:43:54.725Z,6.90
2019-02-20T20:46:39.389Z,6.87
2019-02-20T20:49:30.364Z,8.43
2019-02-20T20:52:08.907Z,7.27
2019-02-20T20:55:07.939Z,9.00
2019-02-20T20:58:08.913Z,12.57
2019-02-20T21:00:47.704Z,10.73
2019-02-20T21:03:29.542Z,8.97
2019-02-20T21:06:17.648Z,9.47
2019-02-20T21:08:56.489Z,8.87
2019-02-20T21:11:56.558Z,8.27
2019-02-20T21:14:51.071Z,7.33
2019-02-20T21:17:38.707Z,7.97
2019-02-20T21:20:26.923Z,7.53
2019-02-20T21:23:21.342Z,6.23
2019-02-20T21:26:10.375Z,7.43
2019-02-20T21:28:57.875Z,7.53
2019-02-20T21:31:53.729Z,7.13
2019-02-20T21:34:48.366Z,5.40
2019-02-20T21:37:44.893Z,6.77
2019-02-20T21:40:55.560Z,6.57
2019-02-20T21:43:54.133Z,6.13
2019-02-20T21:46:38.978Z,5.40
2019-02-20T21:49:26.432Z,5.63
2019-02-20T21:52:25.254Z,5.97
2019-02-20T21:55:08.526Z,6.10
2019-02-20T21:58:04.555Z,6.53
2019-02-20T22:00:43.649Z,5.70
2019-02-20T22:03:52.985Z,5.37
2019-02-20T22:07:01.808Z,6.00
2019-02-20T22:10:17.254Z,5.90
2019-02-20T22:13:31.243Z,7.00
2019-02-20T22:16:27.345Z,6.07
2019-02-20T22:19:15.177Z,5.27
2019-02-20T22:22:14.059Z,6.13
2019-02-20T22:25:22.970Z,5.43
2019-02-20T22:28:04.235Z,5.60
2019-02-20T22:31:13.266Z,5.97
2019-02-20T22:34:22.755Z,6.50
2019-02-20T22:37:23.214Z,5.33
2019-02-20T22:40:11.329Z,5.30
2019-02-20T22:43:27.278Z,5.40
2019-02-20T22:46:05.384Z,7.40
2019-02-20T22:49:01.223Z,8.20
2019-02-20T22:52:02.668Z,7.53
2019-02-20T22:55:08.101Z,4.87
2019-02-20T22:57:49.057Z,6.07
2019-02-20T23:00:56.266Z,6.03
2019-02-20T23:03:55.376Z,4.70
2019-02-20T23:06:43.381Z,6.27
2019-02-20T23:09:44.758Z,6.07
2019-02-20T23:12:40.990Z,6.23
2019-02-20T23:15:16.011Z,5.83
2019-02-20T23:17:51.326Z,6.40
2019-02-20T23:20:26.422Z,5.40
2019-02-20T23:23:01.449Z,7.00
2019-02-20T23:25:36.729Z,5.67
2019-02-20T23:28:12.689Z,6.27
2019-02-20T23:30:47.711Z,6.17
2019-02-20T23:33:22.998Z,5.77
2019-02-20T23:35:58.280Z,6.00
2019-02-20T23:38:33.699Z,6.57
2019-02-20T23:41:09.040Z,6.13
2019-02-20T23:43:44.050Z,7.70
2019-02-20T23:46:19.423Z,6.57
2019-02-20T23:48:54.709Z,6.63
2019-02-20T23:51:30.798Z,7.23
2019-02-20T23:54:05.831Z,6.90
2019-02-20T23:56:40.867Z,7.07
2019-02-20T23:59:16.346Z,7.73
